sensor_id;sensor_type;location;lat;lon;timestamp;P1;durP1;ratioP1;P2;durP2;ratioP2
70148;SDS011;57514;52.164;5.282;2023-05-25T00:01:42;9.95;;;3.42;;
70148;SDS011;57514;52.164;5.282;2023-05-25T00:04:10;14.02;;;3.50;;
70148;SDS011;57514;52.164;5.282;2023-05-25T00:06:42;9.68;;;3.42;;
70148;SDS011;57514;52.164;5.282;2023-05-25T00:09:10;11.50;;;3.63;;
70148;SDS011;57514;52.164;5.282;2023-05-25T00:11:38;9.52;;;3.53;;
70148;SDS011;57514;52.164;5.282;2023-05-25T00:14:05;13.05;;;4.03;;
70148;SDS011;57514;52.164;5.282;2023-05-25T00:16:33;11.18;;;3.25;;
70148;SDS011;57514;52.164;5.282;2023-05-25T00:19:03;9.60;;;3.25;;
70148;SDS011;57514;52.164;5.282;2023-05-25T00:21:32;10.82;;;3.90;;
70148;SDS011;57514;52.164;5.282;2023-05-25T00:23:59;9.85;;;3.67;;
70148;SDS011;57514;52.164;5.282;2023-05-25T00:26:26;9.07;;;3.25;;
70148;SDS011;57514;52.164;5.282;2023-05-25T00:28:53;10.43;;;3.67;;
70148;SDS011;57514;52.164;5.282;2023-05-25T00:31:21;13.52;;;3.50;;
70148;SDS011;57514;52.164;5.282;2023-05-25T00:33:48;8.55;;;3.28;;
70148;SDS011;57514;52.164;5.282;2023-05-25T00:36:16;10.73;;;4.38;;
70148;SDS011;57514;52.164;5.282;2023-05-25T00:38:43;11.68;;;3.35;;
70148;SDS011;57514;52.164;5.282;2023-05-25T00:41:11;11.15;;;3.83;;
70148;SDS011;57514;52.164;5.282;2023-05-25T00:43:38;13.73;;;3.88;;
70148;SDS011;57514;52.164;5.282;2023-05-25T00:46:06;10.30;;;3.42;;
70148;SDS011;57514;52.164;5.282;2023-05-25T00:48:33;11.82;;;3.75;;
70148;SDS011;57514;52.164;5.282;2023-05-25T00:51:03;13.50;;;3.38;;
70148;SDS011;57514;52.164;5.282;2023-05-25T00:53:30;10.00;;;3.55;;
70148;SDS011;57514;52.164;5.282;2023-05-25T00:56:04;12.57;;;3.58;;
70148;SDS011;57514;52.164;5.282;2023-05-25T00:58:32;9.48;;;3.63;;
70148;SDS011;57514;52.164;5.282;2023-05-25T01:01:00;12.40;;;4.20;;
70148;SDS011;57514;52.164;5.282;2023-05-25T01:03:30;11.27;;;3.80;;
70148;SDS011;57514;52.164;5.282;2023-05-25T01:06:01;10.35;;;3.53;;
70148;SDS011;57514;52.164;5.282;2023-05-25T01:08:28;12.30;;;4.00;;
70148;SDS011;57514;52.164;5.282;2023-05-25T01:10:59;9.82;;;3.53;;
70148;SDS011;57514;52.164;5.282;2023-05-25T01:13:30;9.90;;;3.88;;
70148;SDS011;57514;52.164;5.282;2023-05-25T01:15:58;12.50;;;3.65;;
70148;SDS011;57514;52.164;5.282;2023-05-25T01:18:25;11.18;;;3.63;;
70148;SDS011;57514;52.164;5.282;2023-05-25T01:20:55;9.52;;;3.47;;
70148;SDS011;57514;52.164;5.282;2023-05-25T01:23:29;13.43;;;4.53;;
70148;SDS011;57514;52.164;5.282;2023-05-25T01:25:59;14.45;;;3.85;;
70148;SDS011;57514;52.164;5.282;2023-05-25T01:28:32;11.20;;;3.83;;
70148;SDS011;57514;52.164;5.282;2023-05-25T01:31:02;10.57;;;3.47;;
70148;SDS011;57514;52.164;5.282;2023-05-25T01:33:29;9.90;;;3.33;;
70148;SDS011;57514;52.164;5.282;2023-05-25T01:35:57;12.40;;;4.03;;
70148;SDS011;57514;52.164;5.282;2023-05-25T01:38:25;11.20;;;3.42;;
70148;SDS011;57514;52.164;5.282;2023-05-25T01:40:53;9.05;;;3.60;;
70148;SDS011;57514;52.164;5.282;2023-05-25T01:43:21;9.55;;;3.30;;
70148;SDS011;57514;52.164;5.282;2023-05-25T01:45:48;11.18;;;3.85;;
70148;SDS011;57514;52.164;5.282;2023-05-25T01:53:18;9.10;;;3.80;;
70148;SDS011;57514;52.164;5.282;2023-05-25T01:55:50;8.60;;;3.15;;
70148;SDS011;57514;52.164;5.282;2023-05-25T01:58:23;9.15;;;3.40;;
70148;SDS011;57514;52.164;5.282;2023-05-25T02:00:50;11.25;;;3.90;;
70148;SDS011;57514;52.164;5.282;2023-05-25T02:03:18;7.82;;;3.05;;
70148;SDS011;57514;52.164;5.282;2023-05-25T02:05:47;9.32;;;3.92;;
70148;SDS011;57514;52.164;5.282;2023-05-25T02:08:15;10.52;;;3.65;;
70148;SDS011;57514;52.164;5.282;2023-05-25T02:10:42;10.48;;;3.50;;
70148;SDS011;57514;52.164;5.282;2023-05-25T02:13:10;9.65;;;3.35;;
70148;SDS011;57514;52.164;5.282;2023-05-25T02:15:37;11.00;;;3.75;;
70148;SDS011;57514;52.164;5.282;2023-05-25T02:18:05;12.93;;;4.10;;
70148;SDS011;57514;52.164;5.282;2023-05-25T02:20:35;9.10;;;3.75;;
70148;SDS011;57514;52.164;5.282;2023-05-25T02:23:02;10.10;;;3.47;;
70148;SDS011;57514;52.164;5.282;2023-05-25T02:25:32;11.60;;;3.75;;
70148;SDS011;57514;52.164;5.282;2023-05-25T02:27:59;10.35;;;3.75;;
70148;SDS011;57514;52.164;5.282;2023-05-25T02:30:26;10.77;;;3.88;;
70148;SDS011;57514;52.164;5.282;2023-05-25T02:32:55;10.82;;;4.10;;
70148;SDS011;57514;52.164;5.282;2023-05-25T02:35:23;9.65;;;4.00;;
70148;SDS011;57514;52.164;5.282;2023-05-25T02:37:51;10.75;;;3.88;;
70148;SDS011;57514;52.164;5.282;2023-05-25T02:40:18;10.55;;;3.72;;
70148;SDS011;57514;52.164;5.282;2023-05-25T02:42:45;8.07;;;3.70;;
70148;SDS011;57514;52.164;5.282;2023-05-25T02:45:13;11.65;;;3.97;;
70148;SDS011;57514;52.164;5.282;2023-05-25T02:47:40;9.45;;;3.40;;
70148;SDS011;57514;52.164;5.282;2023-05-25T02:50:08;11.25;;;4.30;;
70148;SDS011;57514;52.164;5.282;2023-05-25T02:52:41;9.15;;;3.35;;
70148;SDS011;57514;52.164;5.282;2023-05-25T02:55:08;8.48;;;3.35;;
70148;SDS011;57514;52.164;5.282;2023-05-25T02:57:39;12.52;;;3.78;;
70148;SDS011;57514;52.164;5.282;2023-05-25T03:00:07;12.10;;;3.97;;
70148;SDS011;57514;52.164;5.282;2023-05-25T03:02:37;10.38;;;3.95;;
70148;SDS011;57514;52.164;5.282;2023-05-25T03:05:05;9.65;;;4.03;;
70148;SDS011;57514;52.164;5.282;2023-05-25T03:07:34;10.35;;;3.83;;
70148;SDS011;57514;52.164;5.282;2023-05-25T03:10:01;9.57;;;3.63;;
70148;SDS011;57514;52.164;5.282;2023-05-25T03:12:29;9.40;;;3.33;;
70148;SDS011;57514;52.164;5.282;2023-05-25T03:14:56;12.68;;;3.67;;
70148;SDS011;57514;52.164;5.282;2023-05-25T03:17:24;11.48;;;3.75;;
70148;SDS011;57514;52.164;5.282;2023-05-25T03:19:52;7.88;;;3.10;;
70148;SDS011;57514;52.164;5.282;2023-05-25T03:22:19;10.15;;;3.83;;
70148;SDS011;57514;52.164;5.282;2023-05-25T03:24:46;9.57;;;3.70;;
70148;SDS011;57514;52.164;5.282;2023-05-25T03:27:15;13.18;;;3.97;;
70148;SDS011;57514;52.164;5.282;2023-05-25T03:29:43;12.15;;;4.28;;
70148;SDS011;57514;52.164;5.282;2023-05-25T03:32:12;10.45;;;4.15;;
70148;SDS011;57514;52.164;5.282;2023-05-25T03:34:39;9.98;;;3.38;;
70148;SDS011;57514;52.164;5.282;2023-05-25T03:37:08;10.13;;;4.25;;
70148;SDS011;57514;52.164;5.282;2023-05-25T03:39:35;13.65;;;4.57;;
70148;SDS011;57514;52.164;5.282;2023-05-25T03:42:03;10.65;;;4.03;;
70148;SDS011;57514;52.164;5.282;2023-05-25T03:44:31;12.20;;;3.75;;
70148;SDS011;57514;52.164;5.282;2023-05-25T03:47:00;10.73;;;3.65;;
70148;SDS011;57514;52.164;5.282;2023-05-25T03:49:27;11.13;;;3.78;;
70148;SDS011;57514;52.164;5.282;2023-05-25T03:51:55;10.43;;;3.70;;
70148;SDS011;57514;52.164;5.282;2023-05-25T03:54:25;12.63;;;3.97;;
70148;SDS011;57514;52.164;5.282;2023-05-25T03:56:55;11.10;;;4.00;;
70148;SDS011;57514;52.164;5.282;2023-05-25T03:59:24;13.77;;;3.80;;
70148;SDS011;57514;52.164;5.282;2023-05-25T04:01:51;9.48;;;3.58;;
70148;SDS011;57514;52.164;5.282;2023-05-25T04:04:19;10.82;;;4.15;;
70148;SDS011;57514;52.164;5.282;2023-05-25T04:06:47;10.13;;;3.70;;
70148;SDS011;57514;52.164;5.282;2023-05-25T04:09:14;7.20;;;3.58;;
70148;SDS011;57514;52.164;5.282;2023-05-25T04:11:42;8.27;;;3.65;;
70148;SDS011;57514;52.164;5.282;2023-05-25T04:14:09;11.48;;;3.72;;
70148;SDS011;57514;52.164;5.282;2023-05-25T04:16:39;9.80;;;4.35;;
70148;SDS011;57514;52.164;5.282;2023-05-25T04:19:07;12.07;;;3.80;;
70148;SDS011;57514;52.164;5.282;2023-05-25T04:21:35;8.93;;;3.88;;
70148;SDS011;57514;52.164;5.282;2023-05-25T04:24:04;11.38;;;4.43;;
70148;SDS011;57514;52.164;5.282;2023-05-25T04:26:32;12.80;;;5.05;;
70148;SDS011;57514;52.164;5.282;2023-05-25T04:29:01;9.48;;;3.80;;
70148;SDS011;57514;52.164;5.282;2023-05-25T04:31:43;9.85;;;4.50;;
70148;SDS011;57514;52.164;5.282;2023-05-25T04:34:11;12.40;;;4.00;;
70148;SDS011;57514;52.164;5.282;2023-05-25T04:36:48;9.55;;;3.25;;
70148;SDS011;57514;52.164;5.282;2023-05-25T04:39:15;10.93;;;3.63;;
70148;SDS011;57514;52.164;5.282;2023-05-25T04:41:48;8.95;;;3.95;;
70148;SDS011;57514;52.164;5.282;2023-05-25T04:44:17;11.25;;;4.35;;
70148;SDS011;57514;52.164;5.282;2023-05-25T04:46:48;10.25;;;3.95;;
70148;SDS011;57514;52.164;5.282;2023-05-25T04:49:24;10.98;;;3.28;;
70148;SDS011;57514;52.164;5.282;2023-05-25T04:51:52;9.30;;;3.83;;
70148;SDS011;57514;52.164;5.282;2023-05-25T04:54:19;8.75;;;3.63;;
70148;SDS011;57514;52.164;5.282;2023-05-25T04:56:46;9.07;;;3.53;;
70148;SDS011;57514;52.164;5.282;2023-05-25T04:59:14;10.82;;;3.85;;
70148;SDS011;57514;52.164;5.282;2023-05-25T05:01:41;10.07;;;3.65;;
70148;SDS011;57514;52.164;5.282;2023-05-25T05:04:12;9.63;;;3.75;;
70148;SDS011;57514;52.164;5.282;2023-05-25T05:06:41;11.02;;;3.42;;
70148;SDS011;57514;52.164;5.282;2023-05-25T05:09:14;10.00;;;3.80;;
70148;SDS011;57514;52.164;5.282;2023-05-25T05:11:42;10.20;;;3.70;;
70148;SDS011;57514;52.164;5.282;2023-05-25T05:14:09;12.00;;;4.22;;
70148;SDS011;57514;52.164;5.282;2023-05-25T05:16:38;8.30;;;3.78;;
70148;SDS011;57514;52.164;5.282;2023-05-25T05:19:05;10.52;;;4.20;;
70148;SDS011;57514;52.164;5.282;2023-05-25T05:21:32;10.15;;;4.57;;
70148;SDS011;57514;52.164;5.282;2023-05-25T05:24:03;11.77;;;4.88;;
70148;SDS011;57514;52.164;5.282;2023-05-25T05:26:30;12.60;;;4.57;;
70148;SDS011;57514;52.164;5.282;2023-05-25T05:29:18;10.80;;;3.83;;
70148;SDS011;57514;52.164;5.282;2023-05-25T05:31:45;10.93;;;4.07;;
70148;SDS011;57514;52.164;5.282;2023-05-25T05:34:13;11.93;;;4.93;;
70148;SDS011;57514;52.164;5.282;2023-05-25T05:36:39;12.75;;;5.50;;
70148;SDS011;57514;52.164;5.282;2023-05-25T05:39:22;12.60;;;4.72;;
70148;SDS011;57514;52.164;5.282;2023-05-25T05:41:50;11.27;;;4.60;;
70148;SDS011;57514;52.164;5.282;2023-05-25T05:44:19;12.85;;;5.05;;
70148;SDS011;57514;52.164;5.282;2023-05-25T05:46:49;16.50;;;6.10;;
70148;SDS011;57514;52.164;5.282;2023-05-25T05:49:17;12.13;;;4.72;;
70148;SDS011;57514;52.164;5.282;2023-05-25T05:51:44;20.33;;;7.13;;
70148;SDS011;57514;52.164;5.282;2023-05-25T05:54:12;19.42;;;7.13;;
70148;SDS011;57514;52.164;5.282;2023-05-25T05:56:40;23.50;;;8.07;;
70148;SDS011;57514;52.164;5.282;2023-05-25T05:59:07;18.63;;;7.28;;
70148;SDS011;57514;52.164;5.282;2023-05-25T06:01:34;19.83;;;7.07;;
70148;SDS011;57514;52.164;5.282;2023-05-25T06:04:03;17.60;;;6.15;;
70148;SDS011;57514;52.164;5.282;2023-05-25T06:06:31;20.02;;;7.32;;
70148;SDS011;57514;52.164;5.282;2023-05-25T06:09:00;15.68;;;6.38;;
70148;SDS011;57514;52.164;5.282;2023-05-25T06:11:28;15.48;;;6.13;;
70148;SDS011;57514;52.164;5.282;2023-05-25T06:13:56;18.42;;;6.55;;
70148;SDS011;57514;52.164;5.282;2023-05-25T06:16:23;14.20;;;5.80;;
70148;SDS011;57514;52.164;5.282;2023-05-25T06:18:51;17.77;;;6.45;;
70148;SDS011;57514;52.164;5.282;2023-05-25T06:21:18;15.90;;;6.60;;
70148;SDS011;57514;52.164;5.282;2023-05-25T06:23:46;22.10;;;6.45;;
70148;SDS011;57514;52.164;5.282;2023-05-25T06:26:13;16.13;;;6.45;;
70148;SDS011;57514;52.164;5.282;2023-05-25T06:28:40;15.30;;;6.40;;
70148;SDS011;57514;52.164;5.282;2023-05-25T06:31:07;14.43;;;5.45;;
70148;SDS011;57514;52.164;5.282;2023-05-25T06:33:35;14.95;;;5.15;;
70148;SDS011;57514;52.164;5.282;2023-05-25T06:36:04;12.18;;;4.85;;
70148;SDS011;57514;52.164;5.282;2023-05-25T06:38:32;14.60;;;5.78;;
70148;SDS011;57514;52.164;5.282;2023-05-25T06:40:59;18.15;;;5.90;;
70148;SDS011;57514;52.164;5.282;2023-05-25T06:43:28;13.35;;;4.70;;
70148;SDS011;57514;52.164;5.282;2023-05-25T06:46:17;13.80;;;4.82;;
70148;SDS011;57514;52.164;5.282;2023-05-25T06:48:45;15.52;;;5.32;;
70148;SDS011;57514;52.164;5.282;2023-05-25T06:51:12;14.43;;;5.00;;
70148;SDS011;57514;52.164;5.282;2023-05-25T06:53:39;15.13;;;5.28;;
70148;SDS011;57514;52.164;5.282;2023-05-25T06:56:07;13.32;;;5.18;;
70148;SDS011;57514;52.164;5.282;2023-05-25T06:58:34;15.38;;;4.32;;
70148;SDS011;57514;52.164;5.282;2023-05-25T07:01:00;12.65;;;4.63;;
70148;SDS011;57514;52.164;5.282;2023-05-25T07:03:28;12.05;;;4.43;;
70148;SDS011;57514;52.164;5.282;2023-05-25T07:05:55;13.13;;;4.50;;
70148;SDS011;57514;52.164;5.282;2023-05-25T07:08:23;13.95;;;4.55;;
70148;SDS011;57514;52.164;5.282;2023-05-25T07:10:49;10.90;;;3.80;;
70148;SDS011;57514;52.164;5.282;2023-05-25T07:13:17;13.73;;;4.47;;
70148;SDS011;57514;52.164;5.282;2023-05-25T07:15:44;12.25;;;3.78;;
70148;SDS011;57514;52.164;5.282;2023-05-25T07:18:12;11.07;;;3.95;;
70148;SDS011;57514;52.164;5.282;2023-05-25T07:20:39;11.73;;;4.30;;
70148;SDS011;57514;52.164;5.282;2023-05-25T07:23:08;12.75;;;4.60;;
70148;SDS011;57514;52.164;5.282;2023-05-25T07:25:38;10.48;;;3.95;;
70148;SDS011;57514;52.164;5.282;2023-05-25T07:28:06;10.68;;;4.40;;
70148;SDS011;57514;52.164;5.282;2023-05-25T07:30:33;9.73;;;3.80;;
70148;SDS011;57514;52.164;5.282;2023-05-25T07:33:01;14.15;;;4.90;;
70148;SDS011;57514;52.164;5.282;2023-05-25T07:35:28;11.50;;;4.22;;
70148;SDS011;57514;52.164;5.282;2023-05-25T07:37:59;12.77;;;4.30;;
70148;SDS011;57514;52.164;5.282;2023-05-25T07:40:27;11.77;;;4.47;;
70148;SDS011;57514;52.164;5.282;2023-05-25T07:42:54;10.07;;;3.63;;
70148;SDS011;57514;52.164;5.282;2023-05-25T07:45:21;11.00;;;3.75;;
70148;SDS011;57514;52.164;5.282;2023-05-25T07:47:48;11.85;;;3.92;;
70148;SDS011;57514;52.164;5.282;2023-05-25T07:50:15;11.23;;;4.10;;
70148;SDS011;57514;52.164;5.282;2023-05-25T07:52:43;15.18;;;4.72;;
70148;SDS011;57514;52.164;5.282;2023-05-25T07:55:10;15.27;;;5.00;;
70148;SDS011;57514;52.164;5.282;2023-05-25T07:57:39;16.05;;;4.47;;
70148;SDS011;57514;52.164;5.282;2023-05-25T08:00:07;15.30;;;5.15;;
70148;SDS011;57514;52.164;5.282;2023-05-25T08:02:38;14.05;;;4.30;;
70148;SDS011;57514;52.164;5.282;2023-05-25T08:05:06;11.50;;;4.22;;
70148;SDS011;57514;52.164;5.282;2023-05-25T08:07:35;11.85;;;4.40;;
70148;SDS011;57514;52.164;5.282;2023-05-25T08:10:06;10.60;;;4.40;;
70148;SDS011;57514;52.164;5.282;2023-05-25T08:12:33;14.38;;;4.72;;
70148;SDS011;57514;52.164;5.282;2023-05-25T08:15:14;11.68;;;4.13;;
70148;SDS011;57514;52.164;5.282;2023-05-25T08:17:42;11.15;;;4.13;;
70148;SDS011;57514;52.164;5.282;2023-05-25T08:20:10;10.98;;;4.15;;
70148;SDS011;57514;52.164;5.282;2023-05-25T08:22:37;12.43;;;4.65;;
70148;SDS011;57514;52.164;5.282;2023-05-25T08:25:04;12.32;;;4.38;;
70148;SDS011;57514;52.164;5.282;2023-05-25T08:27:32;10.23;;;3.67;;
70148;SDS011;57514;52.164;5.282;2023-05-25T08:30:02;10.75;;;3.95;;
70148;SDS011;57514;52.164;5.282;2023-05-25T08:34:58;11.52;;;4.15;;
70148;SDS011;57514;52.164;5.282;2023-05-25T08:37:25;10.80;;;4.05;;
70148;SDS011;57514;52.164;5.282;2023-05-25T08:39:51;10.18;;;4.10;;
70148;SDS011;57514;52.164;5.282;2023-05-25T08:42:19;11.45;;;4.35;;
70148;SDS011;57514;52.164;5.282;2023-05-25T08:44:46;11.88;;;3.90;;
70148;SDS011;57514;52.164;5.282;2023-05-25T08:47:13;10.65;;;3.80;;
70148;SDS011;57514;52.164;5.282;2023-05-25T08:49:43;9.48;;;3.50;;
70148;SDS011;57514;52.164;5.282;2023-05-25T08:52:12;12.75;;;4.35;;
70148;SDS011;57514;52.164;5.282;2023-05-25T08:54:42;10.93;;;3.65;;
70148;SDS011;57514;52.164;5.282;2023-05-25T08:57:19;9.73;;;3.45;;
70148;SDS011;57514;52.164;5.282;2023-05-25T08:59:50;10.00;;;3.22;;
70148;SDS011;57514;52.164;5.282;2023-05-25T09:04:51;10.68;;;3.53;;
70148;SDS011;57514;52.164;5.282;2023-05-25T09:07:18;12.10;;;3.22;;
70148;SDS011;57514;52.164;5.282;2023-05-25T09:09:46;11.73;;;3.40;;
70148;SDS011;57514;52.164;5.282;2023-05-25T09:12:14;10.68;;;3.15;;
70148;SDS011;57514;52.164;5.282;2023-05-25T09:14:41;9.80;;;3.50;;
70148;SDS011;57514;52.164;5.282;2023-05-25T09:17:13;10.63;;;3.70;;
70148;SDS011;57514;52.164;5.282;2023-05-25T09:19:41;10.10;;;3.20;;
70148;SDS011;57514;52.164;5.282;2023-05-25T09:22:08;9.18;;;3.42;;
70148;SDS011;57514;52.164;5.282;2023-05-25T09:24:42;8.60;;;3.28;;
70148;SDS011;57514;52.164;5.282;2023-05-25T09:27:10;10.32;;;3.35;;
70148;SDS011;57514;52.164;5.282;2023-05-25T09:29:38;12.70;;;3.95;;
70148;SDS011;57514;52.164;5.282;2023-05-25T09:32:06;9.38;;;3.63;;
70148;SDS011;57514;52.164;5.282;2023-05-25T09:34:33;9.25;;;3.20;;
70148;SDS011;57514;52.164;5.282;2023-05-25T09:37:16;11.40;;;3.38;;
70148;SDS011;57514;52.164;5.282;2023-05-25T09:39:46;14.48;;;3.72;;
70148;SDS011;57514;52.164;5.282;2023-05-25T09:42:13;10.25;;;3.20;;
70148;SDS011;57514;52.164;5.282;2023-05-25T09:44:40;11.57;;;3.50;;
70148;SDS011;57514;52.164;5.282;2023-05-25T09:47:10;10.98;;;3.13;;
70148;SDS011;57514;52.164;5.282;2023-05-25T09:49:39;9.65;;;3.83;;
70148;SDS011;57514;52.164;5.282;2023-05-25T09:52:07;11.85;;;3.35;;
70148;SDS011;57514;52.164;5.282;2023-05-25T09:54:34;10.18;;;3.15;;
70148;SDS011;57514;52.164;5.282;2023-05-25T09:57:03;9.73;;;3.35;;
70148;SDS011;57514;52.164;5.282;2023-05-25T09:59:31;10.93;;;2.90;;
70148;SDS011;57514;52.164;5.282;2023-05-25T10:01:58;9.50;;;3.30;;
70148;SDS011;57514;52.164;5.282;2023-05-25T10:04:26;10.82;;;3.05;;
70148;SDS011;57514;52.164;5.282;2023-05-25T10:06:53;12.98;;;3.67;;
70148;SDS011;57514;52.164;5.282;2023-05-25T10:09:22;9.75;;;3.03;;
70148;SDS011;57514;52.164;5.282;2023-05-25T10:11:51;11.95;;;3.20;;
70148;SDS011;57514;52.164;5.282;2023-05-25T10:14:21;11.18;;;3.22;;
70148;SDS011;57514;52.164;5.282;2023-05-25T10:16:56;11.63;;;3.70;;
70148;SDS011;57514;52.164;5.282;2023-05-25T10:19:24;11.10;;;3.72;;
70148;SDS011;57514;52.164;5.282;2023-05-25T10:22:00;9.30;;;3.42;;
70148;SDS011;57514;52.164;5.282;2023-05-25T10:27:00;11.07;;;3.70;;
70148;SDS011;57514;52.164;5.282;2023-05-25T10:29:49;9.52;;;3.67;;
70148;SDS011;57514;52.164;5.282;2023-05-25T10:32:17;11.75;;;4.03;;
70148;SDS011;57514;52.164;5.282;2023-05-25T10:34:45;10.18;;;3.97;;
70148;SDS011;57514;52.164;5.282;2023-05-25T10:37:13;11.65;;;3.72;;
70148;SDS011;57514;52.164;5.282;2023-05-25T10:39:41;12.90;;;4.00;;
70148;SDS011;57514;52.164;5.282;2023-05-25T10:42:09;10.35;;;3.30;;
70148;SDS011;57514;52.164;5.282;2023-05-25T10:44:41;9.73;;;3.20;;
70148;SDS011;57514;52.164;5.282;2023-05-25T10:47:09;8.32;;;3.05;;
70148;SDS011;57514;52.164;5.282;2023-05-25T10:49:50;8.50;;;2.70;;
70148;SDS011;57514;52.164;5.282;2023-05-25T10:52:29;6.78;;;2.63;;
70148;SDS011;57514;52.164;5.282;2023-05-25T10:55:00;9.57;;;2.88;;
70148;SDS011;57514;52.164;5.282;2023-05-25T10:57:29;9.52;;;2.92;;
70148;SDS011;57514;52.164;5.282;2023-05-25T11:00:00;11.23;;;3.42;;
70148;SDS011;57514;52.164;5.282;2023-05-25T11:02:51;11.10;;;3.53;;
70148;SDS011;57514;52.164;5.282;2023-05-25T11:07:55;10.40;;;4.00;;
70148;SDS011;57514;52.164;5.282;2023-05-25T11:10:49;11.13;;;4.15;;
70148;SDS011;57514;52.164;5.282;2023-05-25T11:13:22;9.68;;;4.10;;
70148;SDS011;57514;52.164;5.282;2023-05-25T11:16:06;11.02;;;3.65;;
70148;SDS011;57514;52.164;5.282;2023-05-25T11:18:38;11.13;;;3.70;;
70148;SDS011;57514;52.164;5.282;2023-05-25T11:21:10;13.32;;;4.10;;
70148;SDS011;57514;52.164;5.282;2023-05-25T11:23:38;12.88;;;4.13;;
70148;SDS011;57514;52.164;5.282;2023-05-25T11:26:21;10.43;;;3.45;;
70148;SDS011;57514;52.164;5.282;2023-05-25T11:28:49;9.95;;;3.58;;
70148;SDS011;57514;52.164;5.282;2023-05-25T11:31:21;12.38;;;3.42;;
70148;SDS011;57514;52.164;5.282;2023-05-25T11:33:55;10.45;;;3.03;;
70148;SDS011;57514;52.164;5.282;2023-05-25T11:36:26;9.45;;;3.30;;
70148;SDS011;57514;52.164;5.282;2023-05-25T11:38:59;11.93;;;3.40;;
70148;SDS011;57514;52.164;5.282;2023-05-25T11:41:36;9.35;;;2.75;;
70148;SDS011;57514;52.164;5.282;2023-05-25T11:44:05;11.30;;;3.20;;
70148;SDS011;57514;52.164;5.282;2023-05-25T11:46:32;11.95;;;3.90;;
70148;SDS011;57514;52.164;5.282;2023-05-25T11:49:00;11.75;;;3.42;;
70148;SDS011;57514;52.164;5.282;2023-05-25T11:51:28;9.70;;;2.90;;
70148;SDS011;57514;52.164;5.282;2023-05-25T11:53:58;8.73;;;2.80;;
70148;SDS011;57514;52.164;5.282;2023-05-25T11:56:30;10.88;;;2.95;;
70148;SDS011;57514;52.164;5.282;2023-05-25T11:59:01;10.02;;;2.58;;
70148;SDS011;57514;52.164;5.282;2023-05-25T12:01:28;7.10;;;2.30;;
70148;SDS011;57514;52.164;5.282;2023-05-25T12:03:57;10.52;;;2.67;;
70148;SDS011;57514;52.164;5.282;2023-05-25T12:06:33;11.20;;;2.38;;
70148;SDS011;57514;52.164;5.282;2023-05-25T12:09:02;8.18;;;2.33;;
70148;SDS011;57514;52.164;5.282;2023-05-25T12:11:36;6.47;;;2.13;;
70148;SDS011;57514;52.164;5.282;2023-05-25T12:14:04;10.73;;;2.63;;
70148;SDS011;57514;52.164;5.282;2023-05-25T12:16:33;9.00;;;3.05;;
70148;SDS011;57514;52.164;5.282;2023-05-25T12:19:06;9.75;;;2.80;;
70148;SDS011;57514;52.164;5.282;2023-05-25T12:21:35;10.77;;;2.67;;
70148;SDS011;57514;52.164;5.282;2023-05-25T12:24:04;9.93;;;3.40;;
70148;SDS011;57514;52.164;5.282;2023-05-25T12:26:31;10.30;;;3.28;;
70148;SDS011;57514;52.164;5.282;2023-05-25T12:28:59;10.82;;;3.28;;
70148;SDS011;57514;52.164;5.282;2023-05-25T12:31:27;13.85;;;3.25;;
70148;SDS011;57514;52.164;5.282;2023-05-25T12:34:12;11.75;;;3.40;;
70148;SDS011;57514;52.164;5.282;2023-05-25T12:42:00;10.50;;;2.75;;
70148;SDS011;57514;52.164;5.282;2023-05-25T12:44:34;8.43;;;3.03;;
70148;SDS011;57514;52.164;5.282;2023-05-25T12:47:08;10.73;;;3.38;;
70148;SDS011;57514;52.164;5.282;2023-05-25T12:49:42;10.20;;;3.10;;
70148;SDS011;57514;52.164;5.282;2023-05-25T12:52:10;9.07;;;2.63;;
70148;SDS011;57514;52.164;5.282;2023-05-25T12:57:48;16.25;;;3.17;;
70148;SDS011;57514;52.164;5.282;2023-05-25T13:00:18;14.25;;;3.50;;
70148;SDS011;57514;52.164;5.282;2023-05-25T13:02:46;11.95;;;3.10;;
70148;SDS011;57514;52.164;5.282;2023-05-25T13:05:16;15.25;;;2.72;;
70148;SDS011;57514;52.164;5.282;2023-05-25T13:07:47;15.15;;;3.72;;
70148;SDS011;57514;52.164;5.282;2023-05-25T13:10:15;15.57;;;3.40;;
70148;SDS011;57514;52.164;5.282;2023-05-25T13:12:43;14.82;;;3.22;;
70148;SDS011;57514;52.164;5.282;2023-05-25T13:15:15;17.98;;;4.22;;
70148;SDS011;57514;52.164;5.282;2023-05-25T13:17:44;14.15;;;2.90;;
70148;SDS011;57514;52.164;5.282;2023-05-25T13:20:11;13.27;;;3.47;;
70148;SDS011;57514;52.164;5.282;2023-05-25T13:22:47;14.45;;;3.08;;
70148;SDS011;57514;52.164;5.282;2023-05-25T13:25:16;13.93;;;3.17;;
70148;SDS011;57514;52.164;5.282;2023-05-25T13:27:45;16.50;;;3.47;;
70148;SDS011;57514;52.164;5.282;2023-05-25T13:30:14;12.85;;;3.45;;
70148;SDS011;57514;52.164;5.282;2023-05-25T13:32:41;15.73;;;3.67;;
70148;SDS011;57514;52.164;5.282;2023-05-25T13:35:12;16.23;;;3.90;;
70148;SDS011;57514;52.164;5.282;2023-05-25T13:37:44;16.50;;;3.40;;
70148;SDS011;57514;52.164;5.282;2023-05-25T13:40:12;15.15;;;3.58;;
70148;SDS011;57514;52.164;5.282;2023-05-25T13:42:40;15.57;;;3.80;;
70148;SDS011;57514;52.164;5.282;2023-05-25T13:45:07;15.63;;;3.20;;
70148;SDS011;57514;52.164;5.282;2023-05-25T13:47:35;13.80;;;3.20;;
70148;SDS011;57514;52.164;5.282;2023-05-25T13:50:06;16.40;;;3.72;;
70148;SDS011;57514;52.164;5.282;2023-05-25T13:52:34;14.85;;;3.45;;
70148;SDS011;57514;52.164;5.282;2023-05-25T13:55:08;17.38;;;4.32;;
70148;SDS011;57514;52.164;5.282;2023-05-25T13:57:35;15.63;;;3.50;;
70148;SDS011;57514;52.164;5.282;2023-05-25T14:00:03;13.73;;;4.03;;
70148;SDS011;57514;52.164;5.282;2023-05-25T14:02:33;13.98;;;3.88;;
70148;SDS011;57514;52.164;5.282;2023-05-25T14:05:02;17.90;;;3.83;;
70148;SDS011;57514;52.164;5.282;2023-05-25T14:07:29;15.68;;;3.58;;
70148;SDS011;57514;52.164;5.282;2023-05-25T14:09:56;15.05;;;3.80;;
70148;SDS011;57514;52.164;5.282;2023-05-25T14:12:25;17.08;;;3.55;;
70148;SDS011;57514;52.164;5.282;2023-05-25T14:14:52;13.18;;;3.35;;
70148;SDS011;57514;52.164;5.282;2023-05-25T14:17:19;15.25;;;3.53;;
70148;SDS011;57514;52.164;5.282;2023-05-25T14:19:47;14.35;;;3.80;;
70148;SDS011;57514;52.164;5.282;2023-05-25T14:22:14;16.08;;;3.72;;
70148;SDS011;57514;52.164;5.282;2023-05-25T14:24:41;19.67;;;4.25;;
70148;SDS011;57514;52.164;5.282;2023-05-25T14:27:08;17.55;;;3.88;;
70148;SDS011;57514;52.164;5.282;2023-05-25T14:29:36;14.95;;;3.55;;
70148;SDS011;57514;52.164;5.282;2023-05-25T14:32:03;14.23;;;3.55;;
70148;SDS011;57514;52.164;5.282;2023-05-25T14:34:30;18.95;;;3.90;;
70148;SDS011;57514;52.164;5.282;2023-05-25T14:36:57;17.80;;;3.65;;
70148;SDS011;57514;52.164;5.282;2023-05-25T14:39:24;14.10;;;3.42;;
70148;SDS011;57514;52.164;5.282;2023-05-25T14:41:52;14.77;;;3.60;;
70148;SDS011;57514;52.164;5.282;2023-05-25T14:44:19;17.95;;;4.10;;
70148;SDS011;57514;52.164;5.282;2023-05-25T14:46:49;17.17;;;3.28;;
70148;SDS011;57514;52.164;5.282;2023-05-25T14:49:16;16.95;;;3.80;;
70148;SDS011;57514;52.164;5.282;2023-05-25T14:51:43;15.35;;;3.60;;
70148;SDS011;57514;52.164;5.282;2023-05-25T14:54:12;16.17;;;3.65;;
70148;SDS011;57514;52.164;5.282;2023-05-25T14:56:39;15.65;;;3.95;;
70148;SDS011;57514;52.164;5.282;2023-05-25T14:59:06;19.15;;;4.00;;
70148;SDS011;57514;52.164;5.282;2023-05-25T15:01:33;13.50;;;3.47;;
70148;SDS011;57514;52.164;5.282;2023-05-25T15:04:00;15.50;;;3.25;;
70148;SDS011;57514;52.164;5.282;2023-05-25T15:06:28;15.55;;;3.67;;
70148;SDS011;57514;52.164;5.282;2023-05-25T15:08:56;11.95;;;3.08;;
70148;SDS011;57514;52.164;5.282;2023-05-25T15:11:24;18.65;;;3.88;;
70148;SDS011;57514;52.164;5.282;2023-05-25T15:13:54;19.23;;;3.92;;